Time;durP1;ratioP1;P1;durP2;ratioP2;P2;SDS_P1;SDS_P2;PMS_P1;PMS_P2;Temp;Humidity;BMP_temperature;BMP_pressure;BME280_temperature;BME280_humidity;BME280_pressure;Samples;Min_cycle;Max_cycle;Signal;HPM_P1;HPM_P2
2022/06/08 06:36:04;;;;;;;2.63;2.00;;;;;;;;;;10552747;28;20052;-86
2022/06/08 06:58:35;;;;;;;4.80;2.05;;;;;;;;;;10666662;27;20027;-84
2022/06/08 07:03:36;;;;;;;4.32;1.83;;;;;;;;;;10655168;28;20027;-83
2022/06/08 07:08:37;;;;;;;2.40;1.50;;;;;;;;;;10623838;28;20031;-80
2022/06/08 07:13:38;;;;;;;2.88;1.95;;;;;;;;;;10612657;28;20019;-81
2022/06/08 07:18:39;;;;;;;2.50;1.60;;;;;;;;;;10617707;28;20051;-80
2022/06/08 07:23:41;;;;;;;5.45;1.55;;;;;;;;;;10618587;28;20015;-83
2022/06/08 07:28:42;;;;;;;2.65;1.20;;;;;;;;;;10606773;28;20032;-79
2022/06/08 07:33:43;;;;;;;3.33;1.30;;;;;;;;;;10591519;28;20096;-79
2022/06/08 07:38:45;;;;;;;1.95;1.30;;;;;;;;;;10592751;28;20049;-79
2022/06/08 07:43:46;;;;;;;3.22;1.98;;;;;;;;;;10590727;28;20027;-79
2022/06/08 07:54:07;;;;;;;2.00;1.50;;;;;;;;;;10610356;28;20054;-79
2022/06/08 07:59:08;;;;;;;3.33;1.60;;;;;;;;;;10607277;28;20032;-79
2022/06/08 08:04:09;;;;;;;4.85;1.27;;;;;;;;;;10588411;28;20078;-80
2022/06/08 08:09:31;;;;;;;2.17;1.35;;;;;;;;;;10587344;28;20112;-80
2022/06/08 08:14:37;;;;;;;2.05;1.10;;;;;;;;;;10605745;28;20437;-79
2022/06/08 08:19:38;;;;;;;2.33;0.90;;;;;;;;;;10586886;28;20055;-79
2022/06/08 08:24:39;;;;;;;2.80;0.95;;;;;;;;;;10592615;28;20305;-80
2022/06/08 08:29:46;;;;;;;3.33;1.45;;;;;;;;;;10592247;28;20080;-81
2022/06/08 08:34:47;;;;;;;2.80;1.08;;;;;;;;;;10594213;28;20034;-81
2022/06/08 08:39:48;;;;;;;2.58;1.00;;;;;;;;;;10595510;28;20131;-80
2022/06/08 08:44:55;;;;;;;2.95;1.20;;;;;;;;;;10596531;28;20031;-82
2022/06/08 08:49:58;;;;;;;3.95;1.17;;;;;;;;;;10599358;28;20099;-80
2022/06/08 08:55:06;;;;;;;2.20;1.23;;;;;;;;;;10608737;28;20045;-82
2022/06/08 09:00:16;;;;;;;1.27;1.00;;;;;;;;;;10596533;28;20023;-84
2022/06/08 09:05:21;;;;;;;2.95;1.10;;;;;;;;;;10598315;28;20020;-84
2022/06/08 09:10:24;;;;;;;4.93;1.23;;;;;;;;;;10607275;28;20023;-85
2022/06/08 09:15:43;;;;;;;3.47;1.17;;;;;;;;;;10579689;28;20019;-85
2022/06/08 09:20:44;;;;;;;1.88;0.90;;;;;;;;;;10574452;28;20031;-84
2022/06/08 09:25:47;;;;;;;2.50;1.08;;;;;;;;;;10577217;28;20480;-85
2022/06/08 09:30:53;;;;;;;3.15;0.90;;;;;;;;;;10597986;28;20028;-85
2022/06/08 09:35:56;;;;;;;3.28;0.82;;;;;;;;;;10576481;28;20019;-86
2022/06/08 09:41:00;;;;;;;2.53;1.17;;;;;;;;;;10575654;28;20024;-81
2022/06/08 09:46:06;;;;;;;4.80;1.42;;;;;;;;;;10584844;28;20027;-81
2022/06/08 09:51:33;;;;;;;2.78;1.35;;;;;;;;;;10594364;28;20031;-82
2022/06/08 09:57:08;;;;;;;4.10;3.20;;;;;;;;;;10577153;28;20039;-82
2022/06/08 10:02:10;;;;;;;3.78;2.28;;;;;;;;;;10585557;28;20039;-81
2022/06/08 10:13:12;;;;;;;5.68;5.05;;;;;;;;;;10594826;28;20482;-82
2022/06/08 10:18:20;;;;;;;4.03;1.50;;;;;;;;;;10594865;28;20023;-83
2022/06/08 10:23:27;;;;;;;2.80;1.58;;;;;;;;;;10577158;28;20145;-79
2022/06/08 10:28:34;;;;;;;4.20;2.05;;;;;;;;;;10566555;28;20192;-80
2022/06/08 10:33:45;;;;;;;3.60;1.58;;;;;;;;;;10567333;28;20363;-79
2022/06/08 10:38:46;;;;;;;2.80;1.50;;;;;;;;;;10572288;28;20110;-80
2022/06/08 10:43:49;;;;;;;2.63;1.40;;;;;;;;;;10568192;28;20027;-80
2022/06/08 10:49:11;;;;;;;2.78;1.20;;;;;;;;;;10595393;28;20028;-80
2022/06/08 11:00:12;;;;;;;4.03;2.30;;;;;;;;;;10602081;28;20031;-83
2022/06/08 11:05:18;;;;;;;5.35;2.00;;;;;;;;;;10583379;28;20478;-84
2022/06/08 11:10:39;;;;;;;2.38;1.40;;;;;;;;;;10604344;28;20075;-83
2022/06/08 11:15:42;;;;;;;2.35;1.65;;;;;;;;;;10587046;28;20118;-84
2022/06/08 11:20:47;;;;;;;4.68;2.05;;;;;;;;;;10582348;28;20043;-83
2022/06/08 11:25:59;;;;;;;3.85;1.80;;;;;;;;;;10581637;28;20111;-84
2022/06/08 11:31:04;;;;;;;7.40;2.17;;;;;;;;;;10573621;28;20026;-80
2022/06/08 11:36:14;;;;;;;3.63;2.35;;;;;;;;;;10572961;28;20023;-84
2022/06/08 11:41:21;;;;;;;3.55;1.60;;;;;;;;;;10598850;28;20028;-84
2022/06/08 11:46:29;;;;;;;4.13;1.83;;;;;;;;;;10584071;28;20153;-84
2022/06/08 11:51:34;;;;;;;4.15;2.00;;;;;;;;;;10588502;28;20439;-83
2022/06/08 11:56:45;;;;;;;3.95;1.90;;;;;;;;;;10585316;28;20023;-84
2022/06/08 12:02:08;;;;;;;3.33;1.83;;;;;;;;;;10597695;28;20079;-80
2022/06/08 12:07:28;;;;;;;3.85;2.80;;;;;;;;;;10557058;28;20032;-84
2022/06/08 12:12:29;;;;;;;6.10;2.83;;;;;;;;;;10596732;28;20032;-83
2022/06/08 12:17:50;;;;;;;4.05;2.30;;;;;;;;;;10577509;28;20031;-84
2022/06/08 12:22:57;;;;;;;5.55;2.58;;;;;;;;;;10576972;28;20390;-84
2022/06/08 12:28:20;;;;;;;3.65;2.25;;;;;;;;;;10576799;28;20119;-83
2022/06/08 12:33:28;;;;;;;4.05;2.30;;;;;;;;;;10575772;28;20479;-83
2022/06/08 12:38:31;;;;;;;6.55;2.45;;;;;;;;;;10576556;28;20084;-84
2022/06/08 12:43:42;;;;;;;8.40;5.78;;;;;;;;;;10578603;28;20027;-83
2022/06/08 12:49:11;;;;;;;10.60;7.65;;;;;;;;;;10594016;28;20028;-83
2022/06/08 12:54:15;;;;;;;8.23;4.75;;;;;;;;;;10573976;28;20122;-83
2022/06/08 12:59:24;;;;;;;3.92;3.00;;;;;;;;;;10576940;28;20030;-84
2022/06/08 13:04:25;;;;;;;5.10;3.00;;;;;;;;;;10597112;28;20042;-84
2022/06/08 13:09:26;;;;;;;5.13;2.20;;;;;;;;;;10575692;28;20099;-84
2022/06/08 13:14:32;;;;;;;6.03;2.80;;;;;;;;;;10588343;28;20015;-80
2022/06/08 13:19:35;;;;;;;4.93;2.20;;;;;;;;;;10565222;28;20027;-79
2022/06/08 13:24:38;;;;;;;4.90;2.35;;;;;;;;;;10566196;28;20027;-79
2022/06/08 13:29:42;;;;;;;4.03;2.38;;;;;;;;;;10563681;28;20035;-79
2022/06/08 13:34:53;;;;;;;4.82;2.30;;;;;;;;;;10581859;28;20035;-79
2022/06/08 13:39:58;;;;;;;4.53;2.22;;;;;;;;;;10546689;28;20054;-79
2022/06/08 13:45:23;;;;;;;4.78;2.42;;;;;;;;;;10576388;28;20436;-79
2022/06/08 13:50:46;;;;;;;4.07;2.10;;;;;;;;;;10584447;28;20111;-78
2022/06/08 13:55:53;;;;;;;4.70;2.10;;;;;;;;;;10564953;28;20106;-79
2022/06/08 14:00:56;;;;;;;5.55;2.55;;;;;;;;;;10564719;28;20077;-78
2022/06/08 14:16:42;;;;;;;5.93;2.97;;;;;;;;;;10597138;28;20265;-83
2022/06/08 14:21:43;;;;;;;6.13;3.05;;;;;;;;;;10563097;28;20040;-81
2022/06/08 14:27:05;;;;;;;5.07;2.60;;;;;;;;;;10581180;28;20031;-80
2022/06/08 14:32:20;;;;;;;4.45;2.35;;;;;;;;;;10597053;28;20043;-80
2022/06/08 14:37:52;;;;;;;4.28;2.10;;;;;;;;;;10611036;28;20532;-83
2022/06/08 14:42:56;;;;;;;7.65;1.98;;;;;;;;;;10581852;28;20054;-82
2022/06/08 14:47:57;;;;;;;4.20;2.08;;;;;;;;;;10597789;28;20035;-84
2022/06/08 14:52:59;;;;;;;4.95;2.30;;;;;;;;;;10576002;28;20023;-84
2022/06/08 14:58:00;;;;;;;4.85;2.25;;;;;;;;;;10578472;28;20028;-83
2022/06/08 15:03:01;;;;;;;5.55;2.25;;;;;;;;;;10578585;28;20027;-85
2022/06/08 15:08:04;;;;;;;4.00;1.90;;;;;;;;;;10579696;28;20034;-86
2022/06/08 15:13:05;;;;;;;4.63;2.85;;;;;;;;;;10595760;28;20031;-85
2022/06/08 15:18:11;;;;;;;5.28;2.35;;;;;;;;;;10579491;28;20039;-85
2022/06/08 15:23:12;;;;;;;5.13;2.15;;;;;;;;;;10590243;28;20028;-87
2022/06/08 15:28:24;;;;;;;3.72;2.30;;;;;;;;;;10591385;28;20020;-86
2022/06/08 15:33:28;;;;;;;3.53;1.85;;;;;;;;;;10579352;28;20027;-86
2022/06/08 15:38:31;;;;;;;2.67;1.67;;;;;;;;;;10577563;28;20603;-85
2022/06/08 15:43:33;;;;;;;5.28;1.80;;;;;;;;;;10592298;28;20028;-87
2022/06/08 15:48:34;;;;;;;3.08;1.48;;;;;;;;;;10572668;28;20023;-87
2022/06/08 15:53:58;;;;;;;3.78;1.50;;;;;;;;;;10572556;28;20026;-87
2022/06/08 15:59:03;;;;;;;3.90;1.38;;;;;;;;;;10573894;28;20023;-86
2022/06/08 16:04:04;;;;;;;2.05;1.38;;;;;;;;;;10572075;28;20403;-84
2022/06/08 16:09:18;;;;;;;2.50;1.52;;;;;;;;;;10572356;28;20042;-84
2022/06/08 16:14:27;;;;;;;2.75;1.30;;;;;;;;;;10591670;28;20027;-80
2022/06/08 16:19:28;;;;;;;3.08;1.27;;;;;;;;;;10575286;28;20059;-81
2022/06/08 16:24:29;;;;;;;4.32;3.30;;;;;;;;;;10615049;28;20012;-85
2022/06/08 16:29:30;;;;;;;3.03;1.60;;;;;;;;;;10577774;28;20088;-83
2022/06/08 16:34:31;;;;;;;4.13;2.10;;;;;;;;;;10575500;28;20087;-85
2022/06/08 16:39:34;;;;;;;4.05;1.60;;;;;;;;;;10578474;28;20095;-84
2022/06/08 16:44:37;;;;;;;2.47;1.67;;;;;;;;;;10570905;28;20034;-82
2022/06/08 16:49:38;;;;;;;4.32;1.67;;;;;;;;;;10568609;28;20387;-85
2022/06/08 16:54:39;;;;;;;2.05;1.20;;;;;;;;;;10570552;28;20077;-81
2022/06/08 16:59:41;;;;;;;2.08;1.30;;;;;;;;;;10572813;28;20027;-83
2022/06/08 17:04:55;;;;;;;4.03;1.48;;;;;;;;;;10579790;28;20042;-84
2022/06/08 17:09:59;;;;;;;3.42;1.52;;;;;;;;;;10600264;28;20028;-83
2022/06/08 17:15:00;;;;;;;2.25;1.13;;;;;;;;;;10574734;28;20077;-85
2022/06/08 17:20:02;;;;;;;1.77;1.00;;;;;;;;;;10580029;28;20036;-84
2022/06/08 17:25:07;;;;;;;2.50;1.55;;;;;;;;;;10580000;28;20019;-83
2022/06/08 17:30:11;;;;;;;2.53;1.40;;;;;;;;;;10600432;28;20042;-84
2022/06/08 17:35:14;;;;;;;1.58;1.20;;;;;;;;;;10568727;28;20118;-83
2022/06/08 17:40:16;;;;;;;2.22;1.23;;;;;;;;;;10582003;28;20483;-83
2022/06/08 17:45:17;;;;;;;1.63;1.17;;;;;;;;;;10600671;28;20024;-83
2022/06/08 17:50:19;;;;;;;3.25;1.88;;;;;;;;;;10600417;28;20050;-83
2022/06/08 17:55:23;;;;;;;2.20;1.65;;;;;;;;;;10598719;28;20034;-83
2022/06/08 18:00:34;;;;;;;2.72;2.33;;;;;;;;;;10588954;28;20047;-83
2022/06/08 18:05:50;;;;;;;;;;;;;;;;;;10588474;28;20040;-84
2022/06/08 18:10:53;;;;;;;3.20;2.90;;;;;;;;;;10606589;28;19911;-83
2022/06/08 18:15:55;;;;;;;2.97;2.20;;;;;;;;;;10601413;28;20028;-84
2022/06/08 18:20:56;;;;;;;3.83;2.75;;;;;;;;;;10580191;28;20037;-84
2022/06/08 18:26:01;;;;;;;3.70;2.97;;;;;;;;;;10603940;28;20035;-84
2022/06/08 18:31:02;;;;;;;4.28;3.05;;;;;;;;;;10592903;28;20020;-85
2022/06/08 18:36:04;;;;;;;3.67;2.50;;;;;;;;;;10591811;28;20050;-83
2022/06/08 18:41:13;;;;;;;3.45;2.47;;;;;;;;;;10618286;28;20473;-83
2022/06/08 18:46:24;;;;;;;2.83;2.10;;;;;;;;;;10610720;28;20039;-83
2022/06/08 18:51:54;;;;;;;3.72;2.55;;;;;;;;;;10617709;28;20044;-84
2022/06/08 18:57:06;;;;;;;4.22;2.70;;;;;;;;;;10590066;28;20030;-85
2022/06/08 19:02:11;;;;;;;4.93;2.78;;;;;;;;;;10577616;28;20054;-83
2022/06/08 19:07:13;;;;;;;4.25;2.60;;;;;;;;;;10574340;28;20035;-84
2022/06/08 19:12:15;;;;;;;3.67;2.72;;;;;;;;;;10603350;28;20051;-83
2022/06/08 19:20:40;;;;;;;3.47;2.40;;;;;;;;;;10578907;28;20391;-85
2022/06/08 19:22:43;;;;;;;3.17;2.38;;;;;;;;;;10602582;28;20028;-84
